createdAt,value
2017-05-29T00:02:21.179Z,2.94
2017-05-29T00:04:49.484Z,3.32
2017-05-29T00:07:17.829Z,3.10
2017-05-29T00:09:46.136Z,2.98
2017-05-29T00:12:14.476Z,3.18
2017-05-29T00:14:42.787Z,3.38
2017-05-29T00:17:11.107Z,3.22
2017-05-29T00:19:39.420Z,3.26
2017-05-29T00:22:07.724Z,3.04
2017-05-29T00:24:36.040Z,2.70
2017-05-29T00:27:04.387Z,3.32
2017-05-29T00:29:32.700Z,2.36
2017-05-29T00:32:01.017Z,2.82
2017-05-29T00:34:29.333Z,3.44
2017-05-29T00:36:57.653Z,3.28
2017-05-29T00:39:25.960Z,3.28
2017-05-29T00:41:54.273Z,3.44
2017-05-29T00:44:22.576Z,4.26
2017-05-29T00:46:50.896Z,3.30
2017-05-29T00:49:19.240Z,3.00
2017-05-29T00:51:47.555Z,3.36
2017-05-29T00:54:15.867Z,3.40
2017-05-29T00:56:44.180Z,3.18
2017-05-29T00:59:12.496Z,4.18
2017-05-29T01:01:40.816Z,3.52
2017-05-29T01:04:09.170Z,3.70
2017-05-29T01:06:37.471Z,3.62
2017-05-29T01:09:05.784Z,3.58
2017-05-29T01:11:34.087Z,5.18
2017-05-29T01:14:02.399Z,3.46
2017-05-29T01:16:30.707Z,3.30
2017-05-29T01:18:59.035Z,3.86
2017-05-29T01:21:27.339Z,3.26
2017-05-29T01:23:55.656Z,3.46
2017-05-29T01:26:23.973Z,3.96
2017-05-29T01:28:52.283Z,3.70
2017-05-29T01:31:20.592Z,3.88
2017-05-29T01:33:48.907Z,3.70
2017-05-29T01:36:17.215Z,4.04
2017-05-29T01:38:45.531Z,4.16
2017-05-29T01:41:13.835Z,3.96
2017-05-29T01:43:42.247Z,3.66
2017-05-29T01:46:10.561Z,3.60
2017-05-29T01:48:38.884Z,3.42
2017-05-29T01:51:07.400Z,3.60
2017-05-29T01:53:35.728Z,3.30
2017-05-29T01:56:04.040Z,3.42
2017-05-29T01:58:32.344Z,3.22
2017-05-29T02:01:00.652Z,3.20
2017-05-29T02:03:28.972Z,3.16
2017-05-29T02:05:57.281Z,3.58
2017-05-29T02:08:25.592Z,3.54
2017-05-29T02:10:53.895Z,3.36
2017-05-29T02:13:22.201Z,3.36
2017-05-29T02:15:50.547Z,3.10
2017-05-29T02:18:18.856Z,3.54
2017-05-29T02:20:47.177Z,3.82
2017-05-29T02:23:15.485Z,3.88
2017-05-29T02:25:43.799Z,2.94
2017-05-29T02:28:12.125Z,3.60
2017-05-29T02:30:40.443Z,3.40
2017-05-29T02:33:08.749Z,2.74
2017-05-29T02:35:37.053Z,3.36
2017-05-29T02:38:05.399Z,3.12
2017-05-29T02:40:33.935Z,3.56
2017-05-29T02:43:02.243Z,3.70
2017-05-29T02:45:30.551Z,3.48
2017-05-29T02:47:58.981Z,3.72
2017-05-29T02:50:27.289Z,3.30
2017-05-29T02:52:55.633Z,3.48
2017-05-29T02:55:23.947Z,3.26
2017-05-29T02:57:52.272Z,3.58
2017-05-29T03:00:20.583Z,3.24
2017-05-29T03:02:48.891Z,3.02
2017-05-29T03:05:17.223Z,3.68
2017-05-29T03:07:45.527Z,3.20
2017-05-29T03:10:13.831Z,5.52
2017-05-29T03:12:42.195Z,4.02
2017-05-29T03:15:10.512Z,3.76
2017-05-29T03:17:38.899Z,3.84
2017-05-29T03:20:07.208Z,3.86
2017-05-29T03:22:35.523Z,3.48
2017-05-29T03:25:03.840Z,3.80
2017-05-29T03:27:32.154Z,3.10
2017-05-29T03:30:00.508Z,3.32
2017-05-29T03:32:28.855Z,3.82
2017-05-29T03:34:57.160Z,3.60
2017-05-29T03:37:25.472Z,3.20
2017-05-29T03:39:53.780Z,4.06
2017-05-29T03:42:22.108Z,3.84
2017-05-29T03:44:50.428Z,3.26
2017-05-29T03:47:18.740Z,3.78
2017-05-29T03:49:47.051Z,3.84
2017-05-29T03:52:15.363Z,3.42
2017-05-29T03:54:43.680Z,4.54
2017-05-29T03:57:11.995Z,3.78
2017-05-29T03:59:40.307Z,4.06
2017-05-29T04:02:08.615Z,4.00
2017-05-29T04:04:36.920Z,3.50
2017-05-29T04:07:05.244Z,3.72
2017-05-29T04:09:33.557Z,3.94
2017-05-29T04:12:01.867Z,4.84
2017-05-29T04:14:30.177Z,3.82
2017-05-29T04:16:58.489Z,3.98
2017-05-29T04:19:26.820Z,3.56
2017-05-29T04:21:55.127Z,3.40
2017-05-29T04:24:23.433Z,3.78
2017-05-29T04:26:51.744Z,3.18
2017-05-29T04:29:20.048Z,3.18
2017-05-29T04:31:48.375Z,3.38
2017-05-29T04:34:16.679Z,3.40
2017-05-29T04:36:44.980Z,4.52
2017-05-29T04:39:13.506Z,3.62
2017-05-29T04:41:41.811Z,4.46
2017-05-29T04:44:10.124Z,4.42
2017-05-29T04:46:38.435Z,4.00
2017-05-29T04:49:06.760Z,3.06
2017-05-29T04:51:35.076Z,4.16
2017-05-29T04:54:03.384Z,4.10
2017-05-29T04:56:31.728Z,4.02
2017-05-29T04:59:00.151Z,3.56
2017-05-29T05:01:28.458Z,3.88
2017-05-29T05:03:56.763Z,4.12
2017-05-29T05:06:25.079Z,5.38
2017-05-29T05:08:53.395Z,4.12
2017-05-29T05:11:21.768Z,4.86
2017-05-29T05:13:50.067Z,4.08
2017-05-29T05:16:18.380Z,3.60
2017-05-29T05:18:46.689Z,4.18
2017-05-29T05:21:15.005Z,3.72
2017-05-29T05:23:43.311Z,3.38
2017-05-29T05:26:11.626Z,5.52
2017-05-29T05:28:39.945Z,3.32
2017-05-29T05:31:08.256Z,2.92
2017-05-29T05:33:36.571Z,3.56
2017-05-29T05:36:04.882Z,3.46
2017-05-29T05:38:33.191Z,3.12
2017-05-29T05:41:01.502Z,3.80
2017-05-29T05:43:29.823Z,4.24
2017-05-29T05:45:58.139Z,3.92
2017-05-29T05:48:26.454Z,3.68
2017-05-29T05:50:54.764Z,6.28
2017-05-29T05:53:23.076Z,5.44
2017-05-29T05:55:51.387Z,4.62
2017-05-29T05:58:19.704Z,4.82
2017-05-29T06:00:48.015Z,3.82
2017-05-29T06:03:16.329Z,4.90
2017-05-29T06:05:44.632Z,3.98
2017-05-29T06:08:12.951Z,5.20
2017-05-29T06:10:41.264Z,5.70
2017-05-29T06:13:09.576Z,3.56
2017-05-29T06:15:37.893Z,3.02
2017-05-29T06:18:06.303Z,3.00
2017-05-29T06:20:34.673Z,3.52
2017-05-29T06:23:03.004Z,2.54
2017-05-29T06:25:31.311Z,2.90
2017-05-29T06:27:59.629Z,3.18
2017-05-29T06:30:27.983Z,2.52
2017-05-29T06:32:56.312Z,3.06
2017-05-29T06:35:24.627Z,1.98
2017-05-29T06:37:52.936Z,2.16
2017-05-29T06:40:21.251Z,2.62
2017-05-29T06:42:49.564Z,2.22
2017-05-29T06:45:17.909Z,2.16
2017-05-29T06:47:46.227Z,2.54
2017-05-29T06:50:14.540Z,1.92
2017-05-29T06:52:42.845Z,2.86
2017-05-29T06:55:11.151Z,2.20
2017-05-29T06:57:39.481Z,2.62
2017-05-29T07:00:08.408Z,2.28
2017-05-29T07:02:36.796Z,2.30
2017-05-29T07:05:05.111Z,1.94
2017-05-29T07:07:33.428Z,2.02
2017-05-29T07:10:01.736Z,3.36
2017-05-29T07:12:30.056Z,2.30
2017-05-29T07:14:58.357Z,3.72
2017-05-29T07:17:26.668Z,2.32
2017-05-29T07:19:54.978Z,1.94
2017-05-29T07:22:23.292Z,2.98
2017-05-29T07:24:51.607Z,3.10
2017-05-29T07:27:19.928Z,2.50
2017-05-29T07:29:48.240Z,2.78
2017-05-29T07:32:16.553Z,2.32
2017-05-29T07:34:44.865Z,2.50
2017-05-29T07:37:13.174Z,2.22
2017-05-29T07:39:41.483Z,2.44
2017-05-29T07:42:09.831Z,2.16
2017-05-29T07:44:38.135Z,2.10
2017-05-29T07:47:06.446Z,2.20
2017-05-29T07:49:34.751Z,2.60
2017-05-29T07:52:03.067Z,2.40
2017-05-29T07:54:31.419Z,2.66
2017-05-29T07:56:59.748Z,3.30
2017-05-29T07:59:28.069Z,2.94
2017-05-29T08:01:56.379Z,2.52
2017-05-29T08:04:24.692Z,2.04
2017-05-29T08:06:53.024Z,2.52
2017-05-29T08:09:21.331Z,2.72
2017-05-29T08:11:49.648Z,2.98
2017-05-29T08:14:17.960Z,2.60
2017-05-29T08:16:46.272Z,2.98
2017-05-29T08:19:14.589Z,2.82
2017-05-29T08:21:42.900Z,3.44
2017-05-29T08:24:11.214Z,3.44
2017-05-29T08:26:39.607Z,4.30
2017-05-29T08:29:08.003Z,3.90
2017-05-29T08:31:36.340Z,3.82
2017-05-29T08:34:04.647Z,3.36
2017-05-29T08:36:32.952Z,4.76
2017-05-29T08:39:01.259Z,4.38
2017-05-29T08:41:29.642Z,3.70
2017-05-29T08:43:57.963Z,4.40
2017-05-29T08:46:26.271Z,3.58
2017-05-29T08:48:54.575Z,3.58
2017-05-29T08:51:22.881Z,3.16
2017-05-29T08:53:51.187Z,4.52
2017-05-29T08:56:19.524Z,4.66
2017-05-29T08:58:47.864Z,3.12
2017-05-29T09:01:16.168Z,3.34
2017-05-29T09:03:44.475Z,3.88
2017-05-29T09:06:12.796Z,4.12
2017-05-29T09:08:41.118Z,3.58
2017-05-29T09:11:09.436Z,3.50
2017-05-29T09:13:37.756Z,4.44
2017-05-29T09:16:06.071Z,3.62
2017-05-29T09:18:34.431Z,4.20
2017-05-29T09:21:02.752Z,3.80
2017-05-29T09:23:31.061Z,3.64
2017-05-29T09:25:59.368Z,4.06
2017-05-29T09:28:27.684Z,4.74
2017-05-29T09:30:56.001Z,4.22
2017-05-29T09:33:24.333Z,5.14
2017-05-29T09:35:52.644Z,3.92
2017-05-29T09:38:20.956Z,5.06
2017-05-29T09:40:49.263Z,3.98
2017-05-29T09:43:17.576Z,3.86
2017-05-29T09:45:45.909Z,3.56
2017-05-29T09:48:14.224Z,4.26
2017-05-29T09:50:42.557Z,3.84
2017-05-29T09:53:10.869Z,4.04
2017-05-29T09:55:39.184Z,3.86
2017-05-29T09:58:07.512Z,4.20
2017-05-29T10:00:35.901Z,3.50
2017-05-29T10:03:04.212Z,3.62
2017-05-29T10:05:32.523Z,3.84
2017-05-29T10:08:00.837Z,2.58
2017-05-29T10:10:29.160Z,4.16
2017-05-29T10:12:57.483Z,3.26
2017-05-29T10:15:25.791Z,3.48
2017-05-29T10:17:54.115Z,3.70
2017-05-29T10:20:22.455Z,2.68
2017-05-29T10:22:50.775Z,2.90
2017-05-29T10:25:19.087Z,3.02
2017-05-29T10:27:47.406Z,2.78
2017-05-29T10:30:15.719Z,3.30
2017-05-29T10:32:44.032Z,2.54
2017-05-29T10:35:12.347Z,2.84
2017-05-29T10:37:40.651Z,2.92
2017-05-29T10:40:08.970Z,2.80
2017-05-29T10:42:37.281Z,2.96
2017-05-29T10:45:05.587Z,2.48
2017-05-29T10:47:33.904Z,2.86
2017-05-29T10:50:02.211Z,3.10
2017-05-29T10:52:30.520Z,3.00
2017-05-29T10:54:58.871Z,2.48
2017-05-29T10:57:27.182Z,2.40
2017-05-29T10:59:55.504Z,2.40
2017-05-29T11:02:23.808Z,2.84
2017-05-29T11:04:52.119Z,3.36
2017-05-29T11:07:20.427Z,3.00
2017-05-29T11:09:49.379Z,2.74
2017-05-29T11:12:17.708Z,2.36
2017-05-29T11:14:46.018Z,3.08
2017-05-29T11:17:14.327Z,3.00
2017-05-29T11:19:42.648Z,2.86
2017-05-29T11:22:10.951Z,2.88
2017-05-29T11:24:39.263Z,3.02
2017-05-29T11:27:07.567Z,2.70
2017-05-29T11:29:35.875Z,2.76
2017-05-29T11:32:04.195Z,2.96
2017-05-29T11:34:32.519Z,3.08
2017-05-29T11:37:00.840Z,3.10
2017-05-29T11:39:29.171Z,2.82
2017-05-29T11:41:57.529Z,3.48
2017-05-29T11:44:25.839Z,2.80
2017-05-29T11:46:54.143Z,2.38
2017-05-29T11:49:22.468Z,2.78
2017-05-29T11:51:50.888Z,2.68
2017-05-29T11:54:19.203Z,2.66
2017-05-29T11:56:47.521Z,3.26
2017-05-29T11:59:15.844Z,2.76
2017-05-29T12:01:44.163Z,3.06
2017-05-29T12:04:12.571Z,2.92
2017-05-29T12:06:40.892Z,3.10
2017-05-29T12:09:09.202Z,2.96
2017-05-29T12:11:37.508Z,3.16
2017-05-29T12:14:05.825Z,3.46
2017-05-29T12:16:34.140Z,3.58
2017-05-29T12:19:02.448Z,3.04
2017-05-29T12:21:30.753Z,3.00
2017-05-29T12:23:59.067Z,3.14
2017-05-29T12:26:27.384Z,3.06
2017-05-29T12:28:55.696Z,2.50
2017-05-29T12:31:24.007Z,3.30
2017-05-29T12:33:52.315Z,2.92
2017-05-29T12:36:20.628Z,3.14
2017-05-29T12:38:48.941Z,2.98
2017-05-29T12:41:17.287Z,3.72
2017-05-29T12:43:45.787Z,3.02
2017-05-29T12:46:14.779Z,3.14
2017-05-29T12:48:43.096Z,2.86
2017-05-29T12:51:11.405Z,3.50
2017-05-29T12:53:39.820Z,2.86
2017-05-29T12:56:08.133Z,4.52
2017-05-29T12:58:36.454Z,4.28
2017-05-29T13:01:04.760Z,3.44
2017-05-29T13:03:33.072Z,3.54
2017-05-29T13:06:01.389Z,2.92
2017-05-29T13:08:29.700Z,3.70
2017-05-29T13:10:58.008Z,3.40
2017-05-29T13:13:26.455Z,4.12
2017-05-29T13:15:54.871Z,4.30
2017-05-29T13:18:23.552Z,3.94
2017-05-29T13:20:52.480Z,3.58
2017-05-29T13:23:20.796Z,3.28
2017-05-29T13:25:49.104Z,3.06
2017-05-29T13:28:17.720Z,3.62
2017-05-29T13:30:46.024Z,2.92
2017-05-29T13:33:14.331Z,3.70
2017-05-29T13:35:42.711Z,3.30
2017-05-29T13:38:11.018Z,3.42
2017-05-29T13:40:39.334Z,2.94
2017-05-29T13:43:07.652Z,2.74
2017-05-29T13:45:35.960Z,4.50
2017-05-29T13:48:04.272Z,4.60
2017-05-29T13:50:32.593Z,3.92
2017-05-29T13:53:00.902Z,3.42
2017-05-29T13:55:29.212Z,3.60
2017-05-29T13:57:57.532Z,3.98
2017-05-29T14:00:25.846Z,3.64
2017-05-29T14:02:54.226Z,4.44
2017-05-29T14:05:22.544Z,4.26
2017-05-29T14:07:50.852Z,3.48
2017-05-29T14:10:19.155Z,4.52
2017-05-29T14:12:47.468Z,4.30
2017-05-29T14:15:15.782Z,3.54
2017-05-29T14:17:44.099Z,4.02
2017-05-29T14:20:12.412Z,3.44
2017-05-29T14:22:40.720Z,4.50
2017-05-29T14:25:09.116Z,3.84
2017-05-29T14:27:37.437Z,3.76
2017-05-29T14:30:05.763Z,4.04
2017-05-29T14:32:34.081Z,4.18
2017-05-29T14:35:02.417Z,4.94
2017-05-29T14:37:30.783Z,3.66
2017-05-29T14:39:59.084Z,3.96
2017-05-29T14:42:27.403Z,4.06
2017-05-29T14:44:55.712Z,4.82
2017-05-29T14:47:24.076Z,4.08
2017-05-29T14:49:52.379Z,3.72
2017-05-29T14:52:20.706Z,4.02
2017-05-29T14:54:49.035Z,4.82
2017-05-29T14:57:17.356Z,3.94
2017-05-29T14:59:45.669Z,3.90
2017-05-29T15:02:13.976Z,4.10
2017-05-29T15:04:42.287Z,3.96
2017-05-29T15:07:10.615Z,4.48
2017-05-29T15:09:38.919Z,4.38
2017-05-29T15:12:07.223Z,4.20
2017-05-29T15:14:35.532Z,4.22
2017-05-29T15:17:03.903Z,4.16
2017-05-29T15:19:32.220Z,5.02
2017-05-29T15:22:00.528Z,5.46
2017-05-29T15:24:28.832Z,6.82
2017-05-29T15:26:57.131Z,6.22
2017-05-29T15:29:25.439Z,7.40
2017-05-29T15:31:53.860Z,6.50
2017-05-29T15:34:22.180Z,7.98
2017-05-29T15:36:50.496Z,7.76
2017-05-29T15:39:18.808Z,33.08
2017-05-29T15:41:47.119Z,10.12
2017-05-29T15:44:16.447Z,9.04
2017-05-29T15:46:44.764Z,8.98
2017-05-29T15:49:13.076Z,8.56
2017-05-29T15:51:41.383Z,8.06
2017-05-29T15:54:09.715Z,7.24
2017-05-29T15:56:38.032Z,8.10
2017-05-29T15:59:06.344Z,7.40
2017-05-29T16:01:34.663Z,7.54
2017-05-29T16:04:03.003Z,7.96
2017-05-29T16:06:31.309Z,8.70
2017-05-29T16:08:59.639Z,9.58
2017-05-29T16:11:27.959Z,10.80
2017-05-29T16:13:56.269Z,9.92
2017-05-29T16:16:24.581Z,8.26
2017-05-29T16:18:52.890Z,9.62
2017-05-29T16:21:21.216Z,11.22
2017-05-29T16:23:49.523Z,9.82
2017-05-29T16:26:17.840Z,10.52
2017-05-29T16:28:46.153Z,9.32
2017-05-29T16:31:14.468Z,9.16
2017-05-29T16:33:43.004Z,11.24
2017-05-29T16:36:11.328Z,9.60
2017-05-29T16:38:39.639Z,9.72
2017-05-29T16:41:07.952Z,9.36
2017-05-29T16:43:36.275Z,11.24
2017-05-29T16:46:04.680Z,11.92
2017-05-29T16:48:32.996Z,29.98
2017-05-29T16:51:01.316Z,13.40
2017-05-29T16:53:29.671Z,11.16
2017-05-29T16:55:57.985Z,12.30
2017-05-29T16:58:26.309Z,11.06
2017-05-29T17:00:54.640Z,11.70
2017-05-29T17:03:22.960Z,11.94
2017-05-29T17:05:51.677Z,12.38
2017-05-29T17:08:20.001Z,10.02
2017-05-29T17:10:48.336Z,11.34
2017-05-29T17:13:16.699Z,10.34
2017-05-29T17:15:45.028Z,9.64
2017-05-29T17:18:13.345Z,10.08
2017-05-29T17:20:41.784Z,15.72
2017-05-29T17:23:10.112Z,12.70
2017-05-29T17:25:38.427Z,15.82
2017-05-29T17:28:06.745Z,10.84
2017-05-29T17:30:35.059Z,10.80
2017-05-29T17:33:03.379Z,12.04
2017-05-29T17:35:31.705Z,10.44
2017-05-29T17:38:00.021Z,10.62
2017-05-29T17:40:28.331Z,12.52
2017-05-29T17:42:56.659Z,11.18
2017-05-29T17:45:24.981Z,12.70
2017-05-29T17:47:53.310Z,11.26
2017-05-29T17:50:21.656Z,11.16
2017-05-29T17:52:49.980Z,13.18
2017-05-29T17:55:18.291Z,14.38
2017-05-29T17:57:46.607Z,12.98
2017-05-29T18:00:14.932Z,11.26
2017-05-29T18:02:43.260Z,12.30
2017-05-29T18:05:11.576Z,9.16
2017-05-29T18:07:39.892Z,10.46
2017-05-29T18:10:08.204Z,8.80
2017-05-29T18:12:36.560Z,8.48
2017-05-29T18:15:04.899Z,8.00
2017-05-29T18:17:33.213Z,7.48
2017-05-29T18:20:01.550Z,7.42
2017-05-29T18:22:29.913Z,7.90
2017-05-29T18:24:58.248Z,7.66
2017-05-29T18:27:26.588Z,7.90
2017-05-29T18:29:54.891Z,7.84
2017-05-29T18:32:23.208Z,8.94
2017-05-29T18:34:51.515Z,8.88
2017-05-29T18:37:19.845Z,8.98
2017-05-29T18:39:48.164Z,9.58
2017-05-29T18:42:16.479Z,11.26
2017-05-29T18:44:44.803Z,9.30
2017-05-29T18:47:13.120Z,9.38
2017-05-29T18:49:41.445Z,10.88
2017-05-29T18:52:09.759Z,12.88
2017-05-29T18:54:38.072Z,10.80
2017-05-29T18:57:06.386Z,10.40
2017-05-29T18:59:34.804Z,11.00
2017-05-29T19:02:03.128Z,9.66
2017-05-29T19:04:31.451Z,10.16
2017-05-29T19:06:59.788Z,9.98
2017-05-29T19:09:28.131Z,10.04
2017-05-29T19:11:56.450Z,9.76
2017-05-29T19:14:24.776Z,13.78
2017-05-29T19:16:53.095Z,10.44
2017-05-29T19:19:21.450Z,30.94
2017-05-29T19:21:49.759Z,12.62
2017-05-29T19:24:18.080Z,10.68
2017-05-29T19:26:46.412Z,10.46
2017-05-29T19:29:14.731Z,11.72
2017-05-29T19:31:43.085Z,15.84
2017-05-29T19:34:11.427Z,13.04
2017-05-29T19:36:39.744Z,12.48
2017-05-29T19:39:08.071Z,13.00
2017-05-29T19:41:36.391Z,15.28
2017-05-29T19:44:04.728Z,14.76
2017-05-29T19:46:33.041Z,16.36
2017-05-29T19:49:01.348Z,15.30
2017-05-29T19:51:29.677Z,14.48
2017-05-29T19:53:57.989Z,17.52
2017-05-29T19:56:26.300Z,15.70
2017-05-29T19:58:54.615Z,14.66
2017-05-29T20:01:24.107Z,14.76
2017-05-29T20:03:52.597Z,15.74
2017-05-29T20:06:21.091Z,14.76
2017-05-29T20:08:49.408Z,13.62
2017-05-29T20:11:17.933Z,12.40
2017-05-29T20:13:46.327Z,13.78
2017-05-29T20:16:14.803Z,14.76
2017-05-29T20:18:43.400Z,22.32
2017-05-29T20:21:11.719Z,27.84
2017-05-29T20:23:40.061Z,14.90
2017-05-29T20:26:08.406Z,13.56
2017-05-29T20:28:36.741Z,16.66
2017-05-29T20:31:05.071Z,14.90
2017-05-29T20:33:33.387Z,15.82
2017-05-29T20:36:01.708Z,14.96
2017-05-29T20:38:30.023Z,15.40
2017-05-29T20:40:58.350Z,14.96
2017-05-29T20:43:26.668Z,15.34
2017-05-29T20:45:54.987Z,15.98
2017-05-29T20:48:23.307Z,15.40
2017-05-29T20:50:51.625Z,16.86
2017-05-29T20:53:19.963Z,16.70
2017-05-29T20:55:48.313Z,16.18
2017-05-29T20:58:16.637Z,16.40
2017-05-29T21:00:44.952Z,17.22
2017-05-29T21:03:13.263Z,17.98
2017-05-29T21:05:41.591Z,17.44
2017-05-29T21:08:09.907Z,19.08
2017-05-29T21:10:38.224Z,15.92
2017-05-29T21:13:06.553Z,17.88
2017-05-29T21:15:34.881Z,18.00
2017-05-29T21:18:04.187Z,17.38
2017-05-29T21:20:32.551Z,16.68
2017-05-29T21:23:00.928Z,20.28
2017-05-29T21:25:29.334Z,19.02
2017-05-29T21:27:57.662Z,18.06
2017-05-29T21:30:25.967Z,19.16
2017-05-29T21:32:54.287Z,18.84
2017-05-29T21:35:22.623Z,19.28
2017-05-29T21:37:50.943Z,18.24
2017-05-29T21:40:20.077Z,18.88
2017-05-29T21:42:48.570Z,17.02
2017-05-29T21:45:17.094Z,19.22
2017-05-29T21:47:45.411Z,18.02
2017-05-29T21:50:13.728Z,18.88
2017-05-29T21:52:42.043Z,18.20
2017-05-29T21:55:10.369Z,19.58
2017-05-29T21:57:38.720Z,20.08
2017-05-29T22:00:07.043Z,18.96
2017-05-29T22:02:35.373Z,18.82
2017-05-29T22:05:03.703Z,19.68
2017-05-29T22:07:32.045Z,19.82
2017-05-29T22:10:00.368Z,17.20
2017-05-29T22:12:28.716Z,19.98
2017-05-29T22:14:57.027Z,19.98
2017-05-29T22:17:25.364Z,19.92
2017-05-29T22:19:53.682Z,19.52
2017-05-29T22:22:22.017Z,20.92
2017-05-29T22:24:50.347Z,21.08
2017-05-29T22:27:18.664Z,20.20
2017-05-29T22:29:46.988Z,19.44
2017-05-29T22:32:15.312Z,19.60
2017-05-29T22:34:43.640Z,19.98
2017-05-29T22:37:11.971Z,19.92
2017-05-29T22:39:40.300Z,21.34
2017-05-29T22:42:08.619Z,20.08
2017-05-29T22:44:36.944Z,20.94
2017-05-29T22:47:05.260Z,21.40
2017-05-29T22:49:33.604Z,21.18
2017-05-29T22:52:01.915Z,22.62
2017-05-29T22:54:30.261Z,20.52
2017-05-29T22:56:58.571Z,20.04
2017-05-29T22:59:26.883Z,21.00
2017-05-29T23:01:54.493Z,22.48
2017-05-29T23:04:22.808Z,21.76
2017-05-29T23:06:51.132Z,22.20
2017-05-29T23:09:19.742Z,22.16
2017-05-29T23:11:48.061Z,23.08
2017-05-29T23:14:16.383Z,22.04
2017-05-29T23:16:44.708Z,22.72
2017-05-29T23:19:13.040Z,21.82
2017-05-29T23:21:41.356Z,22.66
2017-05-29T23:24:09.667Z,21.80
2017-05-29T23:26:37.980Z,24.34
2017-05-29T23:29:06.291Z,22.46
2017-05-29T23:31:34.624Z,21.44
2017-05-29T23:34:03.005Z,22.22
2017-05-29T23:36:31.320Z,20.96
2017-05-29T23:38:59.660Z,22.16
2017-05-29T23:41:27.979Z,21.98
2017-05-29T23:43:56.305Z,22.84
2017-05-29T23:46:24.623Z,21.72
2017-05-29T23:48:52.939Z,21.54
2017-05-29T23:51:21.248Z,21.58
2017-05-29T23:53:49.566Z,20.42
2017-05-29T23:56:17.905Z,21.12
2017-05-29T23:58:46.523Z,20.80
